Time;durP1;ratioP1;P1;durP2;ratioP2;P2;SDS_P1;SDS_P2;PMS_P1;PMS_P2;Temp;Humidity;BMP_temperature;BMP_pressure;BME280_temperature;BME280_humidity;BME280_pressure;Samples;Min_cycle;Max_cycle;Signal;HPM_P1;HPM_P2
2022/11/12 00:02:07;;;;;;;87.80;43.38;;;;;;;8.66;100.00;103050.03;5031866;28;20029;-43
2022/11/12 00:04:33;;;;;;;82.05;43.03;;;;;;;8.67;100.00;103046.41;5046011;28;20048;-43
2022/11/12 00:06:58;;;;;;;90.10;45.45;;;;;;;8.66;100.00;103048.22;5041963;28;20029;-43
2022/11/12 00:09:23;;;;;;;90.15;44.80;;;;;;;8.70;100.00;103038.97;5040720;28;20086;-43
2022/11/12 00:11:49;;;;;;;88.63;44.50;;;;;;;8.73;100.00;103040.56;5037625;28;20057;-43
2022/11/12 00:14:15;;;;;;;90.93;45.60;;;;;;;8.77;100.00;103047.41;5034367;28;20514;-43
2022/11/12 00:16:41;;;;;;;83.03;43.15;;;;;;;8.79;100.00;103051.69;5037507;28;20044;-43
2022/11/12 00:19:06;;;;;;;85.03;44.20;;;;;;;8.83;100.00;103048.78;5048957;28;20038;-43
2022/11/12 00:21:33;;;;;;;82.35;43.30;;;;;;;8.87;100.00;103045.72;5042864;28;20357;-43
2022/11/12 00:23:58;;;;;;;87.78;44.08;;;;;;;8.89;100.00;103041.09;5030048;28;20053;-43
2022/11/12 00:26:23;;;;;;;86.28;43.83;;;;;;;8.89;100.00;103041.09;5033388;28;20030;-43
2022/11/12 00:28:49;;;;;;;81.50;43.75;;;;;;;8.87;100.00;103048.41;5032449;28;20056;-44
2022/11/12 00:31:14;;;;;;;85.13;43.22;;;;;;;8.82;100.00;103050.63;5034610;28;20013;-42
2022/11/12 00:33:41;;;;;;;85.00;42.28;;;;;;;8.83;100.00;103046.09;5048935;28;20021;-42
2022/11/12 00:36:08;;;;;;;84.72;43.35;;;;;;;8.83;100.00;103060.38;5047596;28;20111;-43
2022/11/12 00:38:33;;;;;;;78.35;42.35;;;;;;;8.83;100.00;103051.47;5043525;28;20360;-42
2022/11/12 00:40:59;;;;;;;84.38;43.42;;;;;;;8.86;100.00;103052.06;5039509;28;20040;-43
2022/11/12 00:43:24;;;;;;;76.85;42.40;;;;;;;8.86;100.00;103052.06;5042645;28;20110;-42
2022/11/12 00:45:50;;;;;;;80.22;42.50;;;;;;;8.81;100.00;103048.88;5047235;28;20037;-42
2022/11/12 00:48:15;;;;;;;87.15;43.85;;;;;;;8.75;100.00;103052.03;5048265;28;20025;-42
2022/11/12 00:50:40;;;;;;;79.93;42.08;;;;;;;8.74;100.00;103042.25;5051849;28;20482;-43
2022/11/12 00:53:06;;;;;;;80.75;42.28;;;;;;;8.78;100.00;103046.44;5049218;28;20481;-42
2022/11/12 00:55:31;;;;;;;79.80;42.00;;;;;;;8.79;100.00;103048.13;5051090;28;20313;-42
2022/11/12 00:57:58;;;;;;;77.43;41.97;;;;;;;8.81;100.00;103046.19;5047502;28;20029;-43
2022/11/12 01:00:23;;;;;;;75.82;40.17;;;;;;;8.79;100.00;103051.69;5049072;28;20021;-42
2022/11/12 01:02:49;;;;;;;76.32;39.20;;;;;;;8.84;100.00;103040.59;5045668;28;20044;-42
2022/11/12 01:05:15;;;;;;;75.13;39.75;;;;;;;8.81;100.00;103043.50;5038600;28;20036;-42
2022/11/12 01:07:40;;;;;;;76.90;42.03;;;;;;;8.78;100.00;103038.38;5033157;28;20026;-42
2022/11/12 01:10:06;;;;;;;77.55;41.40;;;;;;;8.68;100.00;103042.72;5034663;28;20025;-43
2022/11/12 01:12:32;;;;;;;71.88;38.80;;;;;;;8.63;100.00;103037.69;5032953;28;20049;-42
2022/11/12 01:14:57;;;;;;;73.50;39.78;;;;;;;8.62;100.00;103036.00;5039031;28;20020;-42
2022/11/12 01:17:23;;;;;;;73.53;39.30;;;;;;;8.61;100.00;103030.72;5037286;28;20029;-42
2022/11/12 01:19:49;;;;;;;70.05;38.95;;;;;;;8.53;100.00;103029.50;5036429;28;20363;-43
2022/11/12 01:22:14;;;;;;;75.97;39.95;;;;;;;8.54;100.00;103041.94;5033081;28;20101;-43
2022/11/12 01:24:39;;;;;;;70.93;38.33;;;;;;;8.52;100.00;103045.72;5044790;28;20192;-43
2022/11/12 01:27:05;;;;;;;72.35;39.20;;;;;;;8.59;100.00;103052.34;5032676;28;20033;-43
2022/11/12 01:29:30;;;;;;;81.75;39.88;;;;;;;8.57;100.00;103057.81;5043648;28;20017;-43
2022/11/12 01:31:55;;;;;;;79.38;38.97;;;;;;;8.56;100.00;103060.63;5052200;28;20079;-42
2022/11/12 01:34:21;;;;;;;80.47;40.80;;;;;;;8.59;100.00;103054.16;5048684;28;20025;-42
2022/11/12 01:36:46;;;;;;;78.45;41.75;;;;;;;8.61;100.00;103054.88;5038484;28;20025;-42
2022/11/12 01:39:11;;;;;;;72.53;40.85;;;;;;;8.66;100.00;103058.09;5049488;28;20029;-43
2022/11/12 01:41:38;;;;;;;86.75;42.80;;;;;;;8.64;100.00;103060.06;5045429;28;20025;-42
2022/11/12 01:44:20;;;;;;;79.60;41.58;;;;;;;8.67;100.00;103066.03;5040850;28;20116;-43
2022/11/12 01:46:51;;;;;;;98.22;47.97;;;;;;;8.62;100.00;103048.56;5032112;28;20030;-42
2022/11/12 01:49:21;;;;;;;92.80;47.40;;;;;;;8.56;100.00;103045.38;5037791;28;20040;-43
2022/11/12 01:51:49;;;;;;;90.63;45.75;;;;;;;8.59;100.00;103046.97;5050505;28;20089;-43
2022/11/12 01:54:16;;;;;;;86.55;46.67;;;;;;;8.61;100.00;103049.53;5029113;28;20374;-42
2022/11/12 01:56:41;;;;;;;88.68;45.83;;;;;;;8.59;100.00;103049.66;5036472;28;20021;-42
2022/11/12 01:59:15;;;;;;;88.68;46.90;;;;;;;8.57;100.00;103047.06;5038059;28;20079;-42
2022/11/12 02:01:41;;;;;;;81.63;43.75;;;;;;;8.59;100.00;103048.81;5014534;28;20032;-42
2022/11/12 02:04:06;;;;;;;79.55;41.72;;;;;;;8.60;100.00;103048.66;5049056;28;20025;-43
2022/11/12 02:06:31;;;;;;;74.88;40.40;;;;;;;8.62;100.00;103037.84;5035714;28;20100;-43
2022/11/12 02:08:57;;;;;;;71.57;39.72;;;;;;;8.57;100.00;103040.84;5044858;28;20036;-42
2022/11/12 02:11:22;;;;;;;74.47;39.90;;;;;;;8.48;100.00;103038.88;5038402;28;20033;-42
2022/11/12 02:14:02;;;;;;;82.07;39.53;;;;;;;8.42;100.00;103032.09;5042993;28;20064;-42
2022/11/12 02:16:31;;;;;;;71.97;37.67;;;;;;;8.36;100.00;103021.81;5049437;28;20152;-42
2022/11/12 02:18:57;;;;;;;85.13;40.50;;;;;;;8.36;100.00;103027.19;5033971;28;20084;-42
2022/11/12 02:21:23;;;;;;;75.65;40.88;;;;;;;8.31;100.00;103021.28;5038480;28;20472;-42
2022/11/12 02:24:04;;;;;;;75.13;39.10;;;;;;;8.30;100.00;103022.28;5038832;28;20068;-42
2022/11/12 02:26:33;;;;;;;75.40;37.30;;;;;;;8.26;100.00;103015.41;5038990;28;20033;-42
2022/11/12 02:28:59;;;;;;;71.05;37.70;;;;;;;8.26;100.00;103015.41;5031147;28;20040;-43
2022/11/12 02:31:24;;;;;;;75.90;39.25;;;;;;;8.29;100.00;103017.84;5034711;28;20033;-43
2022/11/12 02:33:49;;;;;;;76.10;38.13;;;;;;;8.27;100.00;103019.81;5043532;28;20067;-42
2022/11/12 02:36:15;;;;;;;73.00;36.38;;;;;;;8.30;100.00;103016.91;5034563;28;20029;-43
2022/11/12 02:38:40;;;;;;;71.75;35.88;;;;;;;8.39;100.00;103026.09;5051466;28;20356;-42
2022/11/12 02:41:05;;;;;;;74.57;37.08;;;;;;;8.39;100.00;103020.72;5038856;28;20030;-42
2022/11/12 02:43:31;;;;;;;77.88;36.63;;;;;;;8.31;100.00;103023.97;5030763;28;20025;-43
2022/11/12 02:45:56;;;;;;;71.90;36.70;;;;;;;8.29;100.00;103020.53;5029101;28;20029;-43
2022/11/12 02:48:21;;;;;;;75.20;36.90;;;;;;;8.31;100.00;103018.59;5038474;28;20502;-42
2022/11/12 02:50:47;;;;;;;75.68;36.55;;;;;;;8.35;100.00;103009.38;5037040;28;20461;-43
2022/11/12 02:53:12;;;;;;;78.57;37.42;;;;;;;8.31;100.00;103010.56;5049783;28;20029;-42
2022/11/12 02:55:38;;;;;;;84.07;39.85;;;;;;;8.25;100.00;103008.34;5047805;28;20368;-43
2022/11/12 02:58:03;;;;;;;81.03;38.15;;;;;;;8.29;100.00;103007.13;5037063;28;20029;-43
2022/11/12 03:00:29;;;;;;;89.70;40.40;;;;;;;8.31;100.00;103007.88;5032014;28;20047;-43
2022/11/12 03:03:01;;;;;;;93.75;41.53;;;;;;;8.32;100.00;103020.31;5034727;28;20360;-42
2022/11/12 03:05:28;;;;;;;89.93;39.95;;;;;;;8.34;100.00;103010.31;5040126;28;20036;-42
2022/11/12 03:08:02;;;;;;;90.97;40.88;;;;;;;8.34;100.00;103010.31;5040005;28;20025;-42
2022/11/12 03:10:28;;;;;;;92.57;41.05;;;;;;;8.35;100.00;103020.97;5033211;28;20132;-42
2022/11/12 03:12:56;;;;;;;95.78;42.80;;;;;;;8.36;100.00;103019.13;5048902;28;20530;-43
2022/11/12 03:15:21;;;;;;;93.65;42.20;;;;;;;8.36;100.00;103016.44;5038187;28;20032;-42
2022/11/12 03:17:47;;;;;;;98.47;44.08;;;;;;;8.40;100.00;103012.59;5050670;28;20040;-42
2022/11/12 03:20:12;;;;;;;137.43;71.90;;;;;;;8.42;100.00;103005.28;5047809;28;20029;-43
2022/11/12 03:22:38;;;;;;;93.53;44.22;;;;;;;8.48;100.00;103010.19;5030370;28;20148;-42
2022/11/12 03:25:05;;;;;;;111.03;48.08;;;;;;;8.45;100.00;103013.13;5036454;28;20074;-42
2022/11/12 03:27:30;;;;;;;115.35;49.35;;;;;;;8.39;100.00;103005.50;5044206;28;20036;-43
2022/11/12 03:29:56;;;;;;;115.55;47.83;;;;;;;8.38;100.00;103009.16;5032453;28;20538;-43
2022/11/12 03:32:21;;;;;;;109.18;48.33;;;;;;;8.41;100.00;103008.94;5045160;28;20055;-42
2022/11/12 03:34:47;;;;;;;111.88;46.75;;;;;;;8.39;100.00;103010.88;5037756;28;20037;-42
2022/11/12 03:37:12;;;;;;;111.82;47.85;;;;;;;8.47;100.00;103018.34;5033877;28;20079;-42
2022/11/12 03:39:37;;;;;;;110.30;48.72;;;;;;;8.47;100.00;103019.22;5045118;28;20064;-42
2022/11/12 03:42:03;;;;;;;114.90;48.08;;;;;;;8.45;100.00;103014.91;5040601;28;20106;-42
2022/11/12 03:44:28;;;;;;;116.88;49.00;;;;;;;8.43;100.00;103016.88;5034734;28;20036;-43
2022/11/12 03:46:54;;;;;;;120.93;50.88;;;;;;;8.38;100.00;103017.19;5029431;28;20021;-43
2022/11/12 03:49:19;;;;;;;123.13;49.38;;;;;;;8.35;100.00;103015.59;5030150;28;20021;-42
2022/11/12 03:51:45;;;;;;;118.50;48.05;;;;;;;8.32;100.00;103020.31;5030265;28;20021;-42
2022/11/12 03:54:11;;;;;;;118.43;48.33;;;;;;;8.40;100.00;103017.97;5030166;28;20022;-42
2022/11/12 03:56:36;;;;;;;121.82;49.85;;;;;;;8.44;100.00;103022.13;5029872;28;20030;-42
2022/11/12 03:59:02;;;;;;;123.68;49.80;;;;;;;8.41;100.00;103014.31;5040855;28;20032;-42
2022/11/12 04:01:27;;;;;;;125.10;49.70;;;;;;;8.44;100.00;103022.13;5035839;28;20402;-42
2022/11/12 04:03:52;;;;;;;125.47;48.28;;;;;;;8.43;100.00;103016.88;5035366;28;20045;-42
2022/11/12 04:09:03;;;;;;;116.90;46.88;;;;;;;8.50;100.00;103024.34;5047898;28;20071;-43
2022/11/12 04:11:28;;;;;;;117.38;49.28;;;;;;;8.47;100.00;103021.03;5033993;28;20469;-43
2022/11/12 04:13:55;;;;;;;119.15;47.25;;;;;;;8.44;100.00;103019.44;5053114;28;20410;-43
2022/11/12 04:22:03;;;;;;;120.60;45.20;;;;;;;8.37;100.00;103023.50;5042027;28;20202;-42
2022/11/12 04:27:21;;;;;;;120.47;45.30;;;;;;;8.43;100.00;103016.88;5037528;28;20103;-42
2022/11/12 04:32:33;;;;;;;100.82;40.08;;;;;;;8.37;100.00;103023.50;5051865;28;20055;-43
2022/11/12 04:34:58;;;;;;;99.40;41.45;;;;;;;8.34;100.00;103019.22;5046719;28;20033;-42
2022/11/12 04:37:25;;;;;;;86.78;38.28;;;;;;;8.34;100.00;103026.44;5043384;28;20036;-43
2022/11/12 04:39:51;;;;;;;93.88;39.22;;;;;;;8.30;100.00;103024.97;5053672;28;20414;-42
2022/11/12 04:45:04;;;;;;;92.28;39.10;;;;;;;8.34;100.00;103029.09;5050841;28;20040;-42
2022/11/12 04:47:42;;;;;;;93.80;39.45;;;;;;;8.23;100.00;103027.22;5051023;28;20055;-42
2022/11/12 04:50:14;;;;;;;93.47;38.67;;;;;;;8.19;100.00;103030.22;5047478;28;20060;-42
2022/11/12 04:52:39;;;;;;;103.35;38.67;;;;;;;8.18;100.00;103029.38;5048407;28;20057;-44
2022/11/12 04:55:05;;;;;;;91.70;37.65;;;;;;;8.12;100.00;103025.31;5044226;28;20067;-42
2022/11/12 04:57:30;;;;;;;87.28;35.75;;;;;;;8.06;100.00;103014.22;5048727;28;20464;-43
2022/11/12 04:59:56;;;;;;;86.20;36.72;;;;;;;7.99;100.00;103000.38;5043802;28;20083;-42
2022/11/12 05:02:21;;;;;;;83.53;36.97;;;;;;;7.98;100.00;102996.00;5032456;28;20037;-43
2022/11/12 05:04:47;;;;;;;104.85;33.75;;;;;;;7.93;100.00;102994.63;5033086;28;20038;-43
2022/11/12 05:07:12;;;;;;;71.32;30.40;;;;;;;7.74;100.00;102992.38;5041976;28;20352;-43
2022/11/12 05:09:38;;;;;;;88.38;31.80;;;;;;;7.65;100.00;102989.41;5046385;28;20314;-43
2022/11/12 05:12:03;;;;;;;83.78;31.35;;;;;;;7.61;100.00;102993.28;5029269;28;20037;-44
2022/11/12 05:14:29;;;;;;;68.82;31.70;;;;;;;7.55;100.00;102983.00;5045853;28;20029;-43
2022/11/12 05:16:54;;;;;;;85.70;33.40;;;;;;;7.50;100.00;102978.94;5049217;28;20426;-43
2022/11/12 05:19:20;;;;;;;97.20;34.45;;;;;;;7.47;100.00;102982.69;5047873;28;20104;-43
2022/11/12 05:24:29;;;;;;;197.23;37.13;;;;;;;7.52;100.00;102988.56;5046549;28;20186;-42
2022/11/12 05:26:55;;;;;;;109.05;33.70;;;;;;;7.43;100.00;102991.94;5040085;28;20124;-43
2022/11/12 05:29:20;;;;;;;82.28;30.52;;;;;;;7.41;100.00;102999.22;5035260;28;20072;-44
2022/11/12 05:31:45;;;;;;;139.43;33.85;;;;;;;7.36;100.00;103001.34;5036457;28;20026;-42
2022/11/12 05:34:11;;;;;;;170.25;33.50;;;;;;;7.33;100.00;102998.91;5051008;28;20060;-43
2022/11/12 05:36:37;;;;;;;99.63;34.88;;;;;;;7.35;100.00;103008.53;5040457;28;20033;-43
2022/11/12 05:39:02;;;;;;;75.03;33.30;;;;;;;7.39;100.00;103010.03;5041965;28;20053;-43
2022/11/12 05:41:28;;;;;;;73.28;32.20;;;;;;;7.41;100.00;102999.22;5044967;28;20057;-43
2022/11/12 05:43:53;;;;;;;158.40;31.15;;;;;;;7.41;100.00;103001.88;5031328;28;20506;-44
2022/11/12 05:46:18;;;;;;;143.13;30.95;;;;;;;7.27;100.00;103005.53;5040540;28;20037;-43
2022/11/12 05:48:44;;;;;;;242.48;30.48;;;;;;;7.02;100.00;103006.38;5042636;28;20175;-43
2022/11/12 05:51:09;;;;;;;146.07;28.15;;;;;;;7.00;100.00;103000.25;5039346;28;20047;-43
2022/11/12 05:53:34;;;;;;;92.65;29.13;;;;;;;6.97;100.00;103000.47;5037704;28;20036;-43
2022/11/12 05:56:01;;;;;;;202.57;31.98;;;;;;;6.86;100.00;102998.53;5030302;28;20031;-43
2022/11/12 05:58:26;;;;;;;169.25;30.88;;;;;;;6.82;100.00;103000.56;5030002;28;20104;-43
2022/11/12 06:00:52;;;;;;;106.97;30.13;;;;;;;6.79;100.00;103006.13;5037538;28;20030;-43
2022/11/12 06:03:17;;;;;;;189.40;32.47;;;;;;;6.81;100.00;103003.34;5029608;28;20045;-43
2022/11/12 06:05:42;;;;;;;57.10;29.27;;;;;;;6.79;100.00;103011.50;5035662;28;20307;-43
2022/11/12 06:08:08;;;;;;;119.72;30.45;;;;;;;6.85;100.00;103002.19;5032574;28;20115;-43
2022/11/12 06:10:33;;;;;;;58.55;28.80;;;;;;;6.89;100.00;103001.00;5045543;28;20033;-43
2022/11/12 06:12:59;;;;;;;103.20;30.23;;;;;;;6.87;100.00;102997.56;5041387;28;20089;-43
2022/11/12 06:15:27;;;;;;;91.40;28.10;;;;;;;6.80;100.00;102997.13;5036845;28;20102;-43
2022/11/12 06:17:52;;;;;;;;;;;;;;;6.75;100.00;102996.59;5033624;28;20029;-43
2022/11/12 06:20:18;;;;;;;68.32;27.90;;;;;;;6.74;100.00;103002.03;5035581;28;19978;-43
2022/11/12 06:22:43;;;;;;;89.88;27.67;;;;;;;6.71;100.00;103007.59;5027933;28;20124;-43
2022/11/12 06:25:09;;;;;;;109.00;27.30;;;;;;;6.64;100.00;103011.66;5031906;28;20450;-44
2022/11/12 06:27:34;;;;;;;163.82;30.05;;;;;;;6.59;100.00;103009.28;5034259;28;20055;-43
2022/11/12 06:30:00;;;;;;;209.45;30.75;;;;;;;6.46;100.00;103014.59;5037899;28;20053;-43
2022/11/12 06:32:25;;;;;;;136.48;29.00;;;;;;;6.40;100.00;103019.47;5029940;28;20025;-43
2022/11/12 06:34:52;;;;;;;166.57;29.60;;;;;;;6.36;100.00;103014.34;5031243;28;20068;-43
2022/11/12 06:37:18;;;;;;;176.75;29.73;;;;;;;6.30;100.00;103009.41;5042014;28;20025;-44
2022/11/12 06:39:43;;;;;;;136.05;29.08;;;;;;;6.23;100.00;103016.09;5043823;28;20350;-44
2022/11/12 06:42:08;;;;;;;74.40;29.15;;;;;;;6.29;100.00;103023.75;5036362;28;20045;-43
2022/11/12 06:44:35;;;;;;;149.65;29.48;;;;;;;6.24;100.00;103020.50;5039741;28;20053;-43
2022/11/12 06:47:01;;;;;;;86.18;29.42;;;;;;;6.29;100.00;103025.53;5043140;28;20104;-43
2022/11/12 06:49:26;;;;;;;136.80;31.98;;;;;;;6.35;100.00;103022.47;5031145;28;20505;-43
2022/11/12 06:51:52;;;;;;;165.02;32.17;;;;;;;6.40;100.00;103024.84;5031474;28;20510;-43
2022/11/12 06:54:17;;;;;;;187.57;33.83;;;;;;;6.36;100.00;103022.38;5033150;28;20013;-43
2022/11/12 06:56:42;;;;;;;116.43;31.95;;;;;;;6.41;100.00;103023.91;5040721;28;20060;-42
2022/11/12 06:59:08;;;;;;;156.30;32.30;;;;;;;6.37;100.00;103026.78;5030368;28;20048;-43
2022/11/12 07:01:33;;;;;;;128.25;34.47;;;;;;;6.34;100.00;103026.94;5030278;28;20053;-43
2022/11/12 07:03:58;;;;;;;111.68;33.15;;;;;;;6.34;100.00;103032.28;5031036;28;20029;-43
2022/11/12 07:06:24;;;;;;;176.85;32.85;;;;;;;6.32;100.00;103034.25;5031017;28;20048;-43
2022/11/12 07:08:49;;;;;;;86.45;31.27;;;;;;;6.31;100.00;103032.50;5030330;28;20029;-43
2022/11/12 07:11:16;;;;;;;93.45;33.25;;;;;;;6.37;100.00;103036.59;5030748;28;20467;-43
2022/11/12 07:13:45;;;;;;;190.85;34.45;;;;;;;6.36;100.00;103034.88;5043302;28;20049;-43
2022/11/12 07:16:10;;;;;;;73.20;32.63;;;;;;;6.40;100.00;103036.41;5041458;28;20025;-43
2022/11/12 07:18:36;;;;;;;76.28;31.27;;;;;;;6.43;100.00;103040.72;5030615;28;20044;-43
2022/11/12 07:21:10;;;;;;;94.03;32.35;;;;;;;6.41;100.00;103042.63;5044250;28;20039;-43
2022/11/12 07:23:36;;;;;;;86.40;31.35;;;;;;;6.43;100.00;103041.56;5029931;28;20029;-43
2022/11/12 07:26:07;;;;;;;66.00;29.65;;;;;;;6.46;100.00;103041.34;5030619;28;20046;-43
2022/11/12 07:28:33;;;;;;;66.20;30.65;;;;;;;6.54;100.00;103043.53;5029346;28;20080;-43
2022/11/12 07:31:00;;;;;;;60.95;30.23;;;;;;;6.65;100.00;103046.34;5029112;28;20061;-43
2022/11/12 07:33:27;;;;;;;58.17;30.03;;;;;;;6.68;100.00;103042.59;5028988;28;20519;-43
2022/11/12 07:35:57;;;;;;;65.30;29.33;;;;;;;6.72;100.00;103034.28;5030344;28;20033;-43
2022/11/12 07:38:22;;;;;;;58.60;29.08;;;;;;;6.72;100.00;103042.28;5030477;28;20056;-44
2022/11/12 07:40:47;;;;;;;61.80;28.70;;;;;;;6.72;100.00;103036.94;5030411;28;20025;-43
2022/11/12 07:43:13;;;;;;;54.63;26.10;;;;;;;6.87;100.00;103040.38;5030565;28;20029;-43
2022/11/12 07:45:38;;;;;;;47.05;26.63;;;;;;;6.91;100.00;103046.41;5029359;28;20096;-42
2022/11/12 07:48:04;;;;;;;46.95;25.63;;;;;;;7.24;100.00;103044.09;5030594;28;20045;-43
2022/11/12 07:50:29;;;;;;;50.63;26.85;;;;;;;7.60;100.00;103042.47;5030259;28;20053;-43
2022/11/12 07:52:57;;;;;;;44.05;24.63;;;;;;;7.96;100.00;103050.69;5030577;28;20032;-43
2022/11/12 07:55:23;;;;;;;;;;;;;;;8.38;100.00;103046.72;5030621;28;20467;-42
2022/11/12 07:57:48;;;;;;;38.25;21.95;;;;;;;9.09;100.00;103052.16;5030375;28;19913;-44
2022/11/12 08:00:14;;;;;;;29.35;19.05;;;;;;;9.67;100.00;103047.59;5030102;28;20025;-43
2022/11/12 08:02:39;;;;;;;32.22;16.67;;;;;;;10.30;100.00;103054.16;5030233;28;20029;-43
2022/11/12 08:05:05;;;;;;;26.38;15.95;;;;;;;10.80;100.00;103042.88;5030020;28;20030;-42
2022/11/12 08:07:30;;;;;;;22.55;14.45;;;;;;;10.95;100.00;103009.22;5030388;28;20055;-43
2022/11/12 08:09:57;;;;;;;24.02;14.60;;;;;;;11.59;100.00;102997.38;5028876;28;20025;-43
2022/11/12 08:12:22;;;;;;;22.15;14.27;;;;;;;12.04;100.00;102991.56;5030142;28;20060;-42
2022/11/12 08:14:47;;;;;;;19.65;12.93;;;;;;;12.84;99.68;103000.41;5030091;28;20388;-43
2022/11/12 08:17:13;;;;;;;18.10;12.70;;;;;;;13.07;91.24;103000.09;5036794;28;20033;-43
2022/11/12 08:19:38;;;;;;;16.70;11.68;;;;;;;13.37;88.60;102997.19;5048877;28;20053;-44
2022/11/12 08:22:04;;;;;;;18.17;11.85;;;;;;;13.48;84.54;103003.41;5050018;28;20101;-43
2022/11/12 08:24:29;;;;;;;16.63;11.80;;;;;;;13.94;86.91;103004.34;5050062;28;20029;-42
2022/11/12 08:26:54;;;;;;;17.85;10.85;;;;;;;13.60;82.23;103002.22;5048620;28;20143;-42
2022/11/12 08:29:22;;;;;;;18.75;11.98;;;;;;;13.93;81.75;103005.31;5049857;28;20037;-43
2022/11/12 08:31:47;;;;;;;14.98;10.30;;;;;;;14.31;79.68;102996.09;5050298;28;20022;-42
2022/11/12 08:34:13;;;;;;;15.20;10.82;;;;;;;14.81;79.98;103008.28;5050236;28;20078;-42
2022/11/12 08:36:41;;;;;;;17.25;11.23;;;;;;;14.77;77.78;103012.31;5049929;28;20024;-43
2022/11/12 08:39:07;;;;;;;12.85;10.23;;;;;;;15.01;75.11;103015.22;5049778;28;20021;-44
2022/11/12 08:41:33;;;;;;;13.48;9.93;;;;;;;14.53;75.21;103007.53;5049723;28;20025;-43
2022/11/12 08:43:58;;;;;;;18.02;10.38;;;;;;;14.01;76.70;103016.28;5049834;28;20021;-43
2022/11/12 08:46:24;;;;;;;12.90;9.70;;;;;;;14.03;77.13;103015.13;5047371;28;20497;-43
2022/11/12 08:48:49;;;;;;;12.43;9.45;;;;;;;13.82;78.50;103007.25;5030131;28;20033;-43
2022/11/12 08:51:14;;;;;;;16.48;9.50;;;;;;;13.44;80.85;103002.88;5029885;28;20021;-42
2022/11/12 08:53:40;;;;;;;12.90;9.60;;;;;;;13.42;81.04;102998.59;5033988;28;20040;-43
2022/11/12 08:56:05;;;;;;;15.85;10.80;;;;;;;13.53;82.31;103002.00;5049426;28;20021;-42
2022/11/12 08:58:31;;;;;;;17.15;9.80;;;;;;;13.51;82.51;102995.88;5039291;28;20036;-43
2022/11/12 09:00:56;;;;;;;14.75;9.75;;;;;;;13.55;83.35;102994.56;5032008;28;20148;-42
2022/11/12 09:03:24;;;;;;;12.82;9.35;;;;;;;13.90;82.61;102994.81;5033349;28;20033;-43
2022/11/12 09:05:50;;;;;;;;;;;;;;;14.01;80.78;103005.44;5033678;28;20030;-42
2022/11/12 09:08:18;;;;;;;13.48;9.38;;;;;;;13.84;79.54;103004.38;5033261;28;19920;-43
2022/11/12 09:10:44;;;;;;;11.85;9.07;;;;;;;13.54;81.41;103005.53;5031548;28;20036;-43
2022/11/12 09:13:10;;;;;;;15.23;9.70;;;;;;;13.46;83.34;103008.13;5031374;28;20041;-42
2022/11/12 09:15:35;;;;;;;14.05;9.63;;;;;;;13.70;84.00;102999.50;5033156;28;20048;-43
2022/11/12 09:18:04;;;;;;;14.02;10.10;;;;;;;13.64;82.95;103000.94;5045637;28;20056;-43
2022/11/12 09:20:30;;;;;;;13.02;9.05;;;;;;;13.19;84.12;103007.03;5052767;28;20036;-42
2022/11/12 09:23:02;;;;;;;14.32;10.20;;;;;;;13.01;85.77;103000.69;5052323;28;20375;-43
2022/11/12 09:25:27;;;;;;;13.18;9.68;;;;;;;12.94;85.94;102993.13;5033382;28;20033;-43
2022/11/12 09:27:53;;;;;;;19.02;10.35;;;;;;;12.42;88.63;102999.84;5031492;28;20052;-43
2022/11/12 09:30:19;;;;;;;15.30;10.35;;;;;;;12.38;90.05;102996.59;5032927;28;20032;-42
2022/11/12 09:32:44;;;;;;;15.15;10.18;;;;;;;12.76;90.37;102992.16;5032949;28;20022;-43
2022/11/12 09:35:09;;;;;;;13.43;10.43;;;;;;;12.69;90.05;102996.44;5032880;28;20041;-42
2022/11/12 09:37:38;;;;;;;19.33;10.82;;;;;;;12.80;89.89;102999.00;5045681;28;20483;-42
2022/11/12 09:40:05;;;;;;;16.20;10.45;;;;;;;12.87;88.93;102988.44;5051516;28;20033;-42
2022/11/12 09:42:33;;;;;;;17.97;10.63;;;;;;;12.65;90.49;102992.31;5052474;28;20498;-43
2022/11/12 09:45:10;;;;;;;16.42;10.90;;;;;;;12.99;91.66;103008.09;5051261;28;20028;-42
2022/11/12 09:47:46;;;;;;;18.88;10.73;;;;;;;13.42;88.22;102995.91;5051046;28;20403;-43
2022/11/12 09:50:25;;;;;;;14.50;10.27;;;;;;;13.79;85.93;103009.41;5051105;28;20029;-43
2022/11/12 09:52:55;;;;;;;17.92;10.65;;;;;;;14.48;85.02;103007.94;5034310;28;20127;-43
2022/11/12 09:55:28;;;;;;;16.67;10.65;;;;;;;14.84;80.75;103010.69;5050519;28;20029;-43
2022/11/12 09:57:53;;;;;;;18.15;10.38;;;;;;;15.06;78.87;103007.47;5051061;28;20403;-43
2022/11/12 10:00:20;;;;;;;13.20;9.40;;;;;;;15.03;78.65;103004.19;5034316;28;20060;-43
2022/11/12 10:02:54;;;;;;;15.25;9.80;;;;;;;14.71;78.08;103011.91;5035536;28;20028;-44
2022/11/12 10:05:22;;;;;;;18.65;10.10;;;;;;;14.12;81.86;103002.53;5046999;28;20021;-43
2022/11/12 10:08:21;;;;;;;17.30;10.15;;;;;;;14.45;83.94;103008.25;5045060;28;20438;-42
2022/11/12 10:10:49;;;;;;;15.38;9.95;;;;;;;15.03;81.12;103004.19;5042556;28;20021;-44
2022/11/12 10:13:37;;;;;;;23.27;9.32;;;;;;;15.14;79.82;103023.78;5035009;28;20479;-43
2022/11/12 10:19:07;;;;;;;15.88;9.55;;;;;;;14.66;79.51;103021.53;5032520;28;20087;-43
2022/11/12 10:21:50;;;;;;;13.93;9.05;;;;;;;14.31;80.34;103017.78;5042913;28;20108;-43
2022/11/12 10:24:15;;;;;;;13.15;9.63;;;;;;;14.40;81.03;103018.72;5032542;28;20033;-42
2022/11/12 10:26:41;;;;;;;11.88;8.90;;;;;;;14.70;79.90;103022.94;5041912;28;20462;-43
2022/11/12 10:29:17;;;;;;;13.40;9.73;;;;;;;14.60;79.08;103023.00;5030822;28;20106;-43
2022/11/12 10:31:42;;;;;;;13.15;9.27;;;;;;;14.79;79.60;103024.69;5048975;28;20036;-43
2022/11/12 10:34:14;;;;;;;16.10;9.68;;;;;;;14.92;79.75;103016.16;5047896;28;20029;-42
2022/11/12 10:36:44;;;;;;;11.95;8.80;;;;;;;15.10;77.92;103022.41;5048217;28;20036;-43
2022/11/12 10:39:09;;;;;;;15.30;8.90;;;;;;;15.32;77.67;103029.19;5045288;28;20028;-43
2022/11/12 10:41:35;;;;;;;15.82;8.13;;;;;;;15.61;75.70;103025.25;5042685;28;20502;-43
2022/11/12 10:44:05;;;;;;;15.35;8.43;;;;;;;15.31;75.69;103030.16;5046341;28;20033;-43
2022/11/12 10:46:35;;;;;;;14.38;8.40;;;;;;;15.71;74.93;103019.72;5048587;28;20125;-43
2022/11/12 10:49:22;;;;;;;13.38;9.93;;;;;;;15.80;74.18;103016.06;5041323;28;20061;-43
2022/11/12 10:51:56;;;;;;;13.38;7.55;;;;;;;16.11;72.92;103012.75;5048408;28;20029;-42
2022/11/12 10:54:35;;;;;;;9.57;7.15;;;;;;;16.51;71.49;103006.53;5046844;28;20047;-43
2022/11/12 10:57:25;;;;;;;11.98;6.78;;;;;;;17.15;68.66;103009.44;5049102;28;20033;-43
2022/11/12 11:00:12;;;;;;;13.23;7.97;;;;;;;17.09;66.69;103004.69;5049051;28;20037;-44
2022/11/12 11:02:46;;;;;;;12.45;6.55;;;;;;;16.95;66.56;103002.66;5043544;28;20498;-43
2022/11/12 11:05:36;;;;;;;14.23;6.95;;;;;;;16.87;68.54;103001.63;5037310;28;20036;-43
2022/11/12 11:08:02;;;;;;;7.85;6.50;;;;;;;16.94;68.47;103006.41;5031949;28;20048;-43
2022/11/12 11:10:35;;;;;;;10.00;5.85;;;;;;;16.68;67.62;103005.53;5038855;28;20021;-43
2022/11/12 11:13:20;;;;;;;8.32;5.80;;;;;;;16.48;67.96;102997.84;5040662;28;20056;-41
2022/11/12 11:16:13;;;;;;;8.25;4.97;;;;;;;16.13;68.53;102992.53;5034954;28;20130;-43
2022/11/12 11:18:40;;;;;;;7.45;5.10;;;;;;;16.74;67.03;102992.25;5038063;28;20144;-42
2022/11/12 11:21:15;;;;;;;6.80;4.95;;;;;;;16.64;65.06;102989.72;5026402;28;20420;-42
2022/11/12 11:23:52;;;;;;;6.68;4.35;;;;;;;17.07;65.46;102998.56;5036368;28;20042;-43
2022/11/12 11:26:26;;;;;;;6.35;4.55;;;;;;;17.06;63.72;102991.41;5034341;28;20025;-43
2022/11/12 11:29:29;;;;;;;4.97;4.28;;;;;;;17.24;64.27;102994.78;5037847;28;20427;-43
2022/11/12 11:32:05;;;;;;;6.20;4.75;;;;;;;17.15;63.58;102984.94;5029891;28;20029;-43
2022/11/12 11:35:01;;;;;;;8.65;4.70;;;;;;;17.27;63.70;102978.13;5046587;28;20032;-43